sensor_id;sensor_type;location;lat;lon;timestamp;pressure;altitude;pressure_sealevel;temperature;humidity
30516;BME280;17297;54.022;10.760;2022-09-27T00:00:39;99253.97;;;14.09;70.87
30516;BME280;17297;54.022;10.760;2022-09-27T00:03:08;99251.50;;;14.08;70.87
30516;BME280;17297;54.022;10.760;2022-09-27T00:05:33;99249.66;;;14.08;70.89
30516;BME280;17297;54.022;10.760;2022-09-27T00:07:58;99253.97;;;14.09;71.01
30516;BME280;17297;54.022;10.760;2022-09-27T00:10:24;99245.88;;;14.09;70.92
30516;BME280;17297;54.022;10.760;2022-09-27T00:12:51;99253.72;;;14.11;70.99
30516;BME280;17297;54.022;10.760;2022-09-27T00:15:17;99246.69;;;14.10;71.02
30516;BME280;17297;54.022;10.760;2022-09-27T00:17:42;99248.56;;;14.09;70.94
30516;BME280;17297;54.022;10.760;2022-09-27T00:20:08;99237.75;;;14.09;71.02
30516;BME280;17297;54.022;10.760;2022-09-27T00:22:34;99244.47;;;14.07;70.93
30516;BME280;17297;54.022;10.760;2022-09-27T00:25:00;99249.34;;;14.05;70.93
30516;BME280;17297;54.022;10.760;2022-09-27T00:27:26;99238.75;;;14.03;70.88
30516;BME280;17297;54.022;10.760;2022-09-27T00:29:52;99240.66;;;14.03;70.95
30516;BME280;17297;54.022;10.760;2022-09-27T00:32:18;99234.66;;;14.01;71.03
30516;BME280;17297;54.022;10.760;2022-09-27T00:34:43;99230.06;;;14.01;71.10
30516;BME280;17297;54.022;10.760;2022-09-27T00:37:10;99241.47;;;14.03;71.16
30516;BME280;17297;54.022;10.760;2022-09-27T00:39:36;99234.16;;;14.04;71.04
30516;BME280;17297;54.022;10.760;2022-09-27T00:42:04;99234.16;;;14.04;71.11
30516;BME280;17297;54.022;10.760;2022-09-27T00:47:26;99228.75;;;14.04;71.09
30516;BME280;17297;54.022;10.760;2022-09-27T00:49:58;99226.06;;;14.04;71.14
30516;BME280;17297;54.022;10.760;2022-09-27T00:55:16;99220.91;;;14.02;71.05
30516;BME280;17297;54.022;10.760;2022-09-27T00:57:44;99219.03;;;14.03;71.07
30516;BME280;17297;54.022;10.760;2022-09-27T01:00:12;99222.31;;;14.05;71.17
30516;BME280;17297;54.022;10.760;2022-09-27T01:02:41;99213.34;;;14.04;71.15
30516;BME280;17297;54.022;10.760;2022-09-27T01:05:09;99215.00;;;14.05;71.20
30516;BME280;17297;54.022;10.760;2022-09-27T01:07:35;99210.41;;;14.06;71.08
30516;BME280;17297;54.022;10.760;2022-09-27T01:10:00;99206.63;;;14.07;71.06
30516;BME280;17297;54.022;10.760;2022-09-27T01:12:51;99209.59;;;14.05;71.21
30516;BME280;17297;54.022;10.760;2022-09-27T01:18:25;99199.28;;;14.02;71.13
30516;BME280;17297;54.022;10.760;2022-09-27T01:23:52;99190.59;;;14.00;71.47
30516;BME280;17297;54.022;10.760;2022-09-27T01:29:10;99195.19;;;14.00;71.40
30516;BME280;17297;54.022;10.760;2022-09-27T01:31:47;99187.31;;;13.98;71.35
30516;BME280;17297;54.022;10.760;2022-09-27T01:39:43;99183.50;;;13.94;71.21
30516;BME280;17297;54.022;10.760;2022-09-27T01:42:41;99178.91;;;13.95;71.25
30516;BME280;17297;54.022;10.760;2022-09-27T01:45:32;99173.75;;;13.93;71.23
30516;BME280;17297;54.022;10.760;2022-09-27T01:48:22;99174.00;;;13.92;71.19
30516;BME280;17297;54.022;10.760;2022-09-27T01:51:01;99170.75;;;13.90;71.30
30516;BME280;17297;54.022;10.760;2022-09-27T01:53:40;99166.16;;;13.90;71.28
30516;BME280;17297;54.022;10.760;2022-09-27T01:56:34;99164.50;;;13.89;71.61
30516;BME280;17297;54.022;10.760;2022-09-27T01:59:19;99166.41;;;13.89;71.44
30516;BME280;17297;54.022;10.760;2022-09-27T02:01:57;99159.09;;;13.89;71.48
30516;BME280;17297;54.022;10.760;2022-09-27T02:04:37;99164.50;;;13.89;71.44
30516;BME280;17297;54.022;10.760;2022-09-27T02:07:22;99149.38;;;13.88;71.46
30516;BME280;17297;54.022;10.760;2022-09-27T02:09:58;99157.47;;;13.88;71.40
30516;BME280;17297;54.022;10.760;2022-09-27T02:12:50;99149.38;;;13.88;71.39
30516;BME280;17297;54.022;10.760;2022-09-27T02:15:22;99155.59;;;13.89;71.50
30516;BME280;17297;54.022;10.760;2022-09-27T02:18:13;99150.19;;;13.89;71.56
30516;BME280;17297;54.022;10.760;2022-09-27T02:20:45;99151.00;;;13.89;71.54
30516;BME280;17297;54.022;10.760;2022-09-27T02:23:21;99152.38;;;13.92;71.68
30516;BME280;17297;54.022;10.760;2022-09-27T02:26:03;99141.31;;;13.93;71.59
30516;BME280;17297;54.022;10.760;2022-09-27T02:28:39;99135.91;;;13.93;71.61
30516;BME280;17297;54.022;10.760;2022-09-27T02:31:12;99133.75;;;13.95;71.60
30516;BME280;17297;54.022;10.760;2022-09-27T02:33:46;99139.75;;;13.97;71.66
30516;BME280;17297;54.022;10.760;2022-09-27T02:36:14;99136.22;;;13.97;71.60
30516;BME280;17297;54.022;10.760;2022-09-27T02:38:40;99127.31;;;13.96;71.73
30516;BME280;17297;54.022;10.760;2022-09-27T02:41:18;99124.59;;;13.96;71.68
30516;BME280;17297;54.022;10.760;2022-09-27T02:43:46;99125.41;;;13.97;71.66
30516;BME280;17297;54.022;10.760;2022-09-27T02:46:51;99127.31;;;13.96;71.80
30516;BME280;17297;54.022;10.760;2022-09-27T02:49:38;99122.13;;;13.95;71.69
30516;BME280;17297;54.022;10.760;2022-09-27T02:52:50;99117.53;;;13.95;71.75
30516;BME280;17297;54.022;10.760;2022-09-27T02:55:41;99124.28;;;13.93;71.72
30516;BME280;17297;54.022;10.760;2022-09-27T03:07:42;99112.66;;;13.92;71.56
30516;BME280;17297;54.022;10.760;2022-09-27T03:10:16;99114.53;;;13.92;71.87
30516;BME280;17297;54.022;10.760;2022-09-27T03:12:41;99107.00;;;13.94;71.65
30516;BME280;17297;54.022;10.760;2022-09-27T03:15:07;99103.47;;;13.93;71.72
30516;BME280;17297;54.022;10.760;2022-09-27T03:17:51;99098.06;;;13.93;71.80
30516;BME280;17297;54.022;10.760;2022-09-27T03:20:35;99098.06;;;13.93;71.68
30516;BME280;17297;54.022;10.760;2022-09-27T03:23:08;99095.38;;;13.93;71.77
30516;BME280;17297;54.022;10.760;2022-09-27T03:25:34;99092.91;;;13.92;71.79
30516;BME280;17297;54.022;10.760;2022-09-27T03:27:59;99099.13;;;13.92;71.80
30516;BME280;17297;54.022;10.760;2022-09-27T03:30:25;99101.03;;;13.92;71.80
30516;BME280;17297;54.022;10.760;2022-09-27T03:32:50;99095.63;;;13.92;71.77
30516;BME280;17297;54.022;10.760;2022-09-27T03:35:36;99095.63;;;13.92;71.90
30516;BME280;17297;54.022;10.760;2022-09-27T03:38:03;99083.19;;;13.91;71.95
30516;BME280;17297;54.022;10.760;2022-09-27T03:40:29;99092.91;;;13.92;71.86
30516;BME280;17297;54.022;10.760;2022-09-27T03:42:55;99084.56;;;13.93;71.84
30516;BME280;17297;54.022;10.760;2022-09-27T03:45:20;99085.38;;;13.94;72.01
30516;BME280;17297;54.022;10.760;2022-09-27T03:47:46;99085.38;;;13.94;72.04
30516;BME280;17297;54.022;10.760;2022-09-27T03:50:12;99075.38;;;13.94;71.73
30516;BME280;17297;54.022;10.760;2022-09-27T03:52:38;99079.97;;;13.94;71.99
30516;BME280;17297;54.022;10.760;2022-09-27T03:55:04;99073.47;;;13.95;71.97
30516;BME280;17297;54.022;10.760;2022-09-27T03:57:29;99075.38;;;13.94;71.96
30516;BME280;17297;54.022;10.760;2022-09-27T03:59:56;99072.66;;;13.94;71.89
30516;BME280;17297;54.022;10.760;2022-09-27T04:02:40;99069.97;;;13.94;71.97
30516;BME280;17297;54.022;10.760;2022-09-27T04:05:25;99073.75;;;13.93;72.07
30516;BME280;17297;54.022;10.760;2022-09-27T04:08:13;99076.44;;;13.93;72.10
30516;BME280;17297;54.022;10.760;2022-09-27T04:10:41;99071.84;;;13.94;72.08
30516;BME280;17297;54.022;10.760;2022-09-27T04:13:06;99070.78;;;13.95;72.10
30516;BME280;17297;54.022;10.760;2022-09-27T04:15:37;99065.13;;;13.96;72.19
30516;BME280;17297;54.022;10.760;2022-09-27T04:18:22;99065.94;;;13.97;71.96
30516;BME280;17297;54.022;10.760;2022-09-27T04:21:10;99064.84;;;13.98;72.06
30516;BME280;17297;54.022;10.760;2022-09-27T04:23:42;99064.03;;;13.97;72.18
30516;BME280;17297;54.022;10.760;2022-09-27T04:26:08;99050.28;;;13.99;72.05
30516;BME280;17297;54.022;10.760;2022-09-27T04:28:46;99057.31;;;14.00;72.06
30516;BME280;17297;54.022;10.760;2022-09-27T04:31:11;99052.72;;;14.00;72.27
30516;BME280;17297;54.022;10.760;2022-09-27T04:34:04;99051.91;;;14.00;71.93
30516;BME280;17297;54.022;10.760;2022-09-27T04:36:32;99064.63;;;13.99;72.09
30516;BME280;17297;54.022;10.760;2022-09-27T04:39:03;99057.31;;;14.00;72.02
30516;BME280;17297;54.022;10.760;2022-09-27T04:41:30;99052.16;;;13.98;72.18
30516;BME280;17297;54.022;10.760;2022-09-27T04:43:57;99059.44;;;13.98;72.18
30516;BME280;17297;54.022;10.760;2022-09-27T04:46:26;99054.03;;;13.98;72.14
30516;BME280;17297;54.022;10.760;2022-09-27T04:48:59;99054.03;;;13.98;72.13
30516;BME280;17297;54.022;10.760;2022-09-27T04:51:26;99060.25;;;13.98;72.15
30516;BME280;17297;54.022;10.760;2022-09-27T04:53:52;99061.91;;;13.99;72.17
30516;BME280;17297;54.022;10.760;2022-09-27T04:56:18;99054.03;;;13.98;72.18
30516;BME280;17297;54.022;10.760;2022-09-27T04:58:43;99053.00;;;13.99;72.18
30516;BME280;17297;54.022;10.760;2022-09-27T05:01:09;99054.63;;;14.00;72.28
30516;BME280;17297;54.022;10.760;2022-09-27T05:04:03;99053.00;;;13.99;72.21
30516;BME280;17297;54.022;10.760;2022-09-27T05:06:29;99054.84;;;13.98;72.28
30516;BME280;17297;54.022;10.760;2022-09-27T05:08:59;99054.63;;;14.00;72.24
30516;BME280;17297;54.022;10.760;2022-09-27T05:11:26;99064.34;;;14.01;72.10
30516;BME280;17297;54.022;10.760;2022-09-27T05:14:13;99050.03;;;14.00;72.28
30516;BME280;17297;54.022;10.760;2022-09-27T05:16:57;99053.28;;;14.02;72.21
30516;BME280;17297;54.022;10.760;2022-09-27T05:19:36;99058.44;;;14.04;72.28
30516;BME280;17297;54.022;10.760;2022-09-27T05:22:09;99056.81;;;14.03;72.14
30516;BME280;17297;54.022;10.760;2022-09-27T05:24:35;99054.09;;;14.03;72.29
30516;BME280;17297;54.022;10.760;2022-09-27T05:27:02;99050.59;;;14.02;72.03
30516;BME280;17297;54.022;10.760;2022-09-27T05:29:28;99062.78;;;14.05;72.21
30516;BME280;17297;54.022;10.760;2022-09-27T05:32:16;99053.03;;;14.04;72.13
30516;BME280;17297;54.022;10.760;2022-09-27T05:34:44;99056.00;;;14.02;72.22
30516;BME280;17297;54.022;10.760;2022-09-27T05:37:09;99059.50;;;14.03;72.27
30516;BME280;17297;54.022;10.760;2022-09-27T05:39:38;99056.81;;;14.03;72.24
30516;BME280;17297;54.022;10.760;2022-09-27T05:42:03;99059.25;;;14.04;72.24
30516;BME280;17297;54.022;10.760;2022-09-27T05:44:31;99057.63;;;14.03;72.35
30516;BME280;17297;54.022;10.760;2022-09-27T05:47:01;99045.19;;;14.02;72.37
30516;BME280;17297;54.022;10.760;2022-09-27T05:49:28;99051.13;;;14.04;72.30
30516;BME280;17297;54.022;10.760;2022-09-27T05:51:54;99055.72;;;14.04;72.40
30516;BME280;17297;54.022;10.760;2022-09-27T05:54:19;99050.31;;;14.04;72.32
30516;BME280;17297;54.022;10.760;2022-09-27T05:56:45;99051.97;;;14.05;72.33
30516;BME280;17297;54.022;10.760;2022-09-27T05:59:21;99047.63;;;14.04;72.22
30516;BME280;17297;54.022;10.760;2022-09-27T06:02:05;99045.72;;;14.04;72.45
30516;BME280;17297;54.022;10.760;2022-09-27T06:04:56;99051.13;;;14.04;72.30
30516;BME280;17297;54.022;10.760;2022-09-27T06:07:40;99046.81;;;14.03;72.38
30516;BME280;17297;54.022;10.760;2022-09-27T06:10:15;99042.22;;;14.04;72.46
30516;BME280;17297;54.022;10.760;2022-09-27T06:12:44;99051.97;;;14.05;72.40
30516;BME280;17297;54.022;10.760;2022-09-27T06:15:33;99046.56;;;14.05;72.45
30516;BME280;17297;54.022;10.760;2022-09-27T06:18:07;99044.66;;;14.05;72.49
30516;BME280;17297;54.022;10.760;2022-09-27T06:20:35;99046.03;;;14.08;72.49
30516;BME280;17297;54.022;10.760;2022-09-27T06:25:35;99049.28;;;14.10;72.50
30516;BME280;17297;54.022;10.760;2022-09-27T06:28:12;99045.50;;;14.11;72.59
30516;BME280;17297;54.022;10.760;2022-09-27T06:30:41;99045.25;;;14.13;72.51
30516;BME280;17297;54.022;10.760;2022-09-27T06:33:18;99045.84;;;14.15;72.59
30516;BME280;17297;54.022;10.760;2022-09-27T06:35:49;99044.47;;;14.17;72.52
30516;BME280;17297;54.022;10.760;2022-09-27T06:38:17;99043.97;;;14.20;72.71
30516;BME280;17297;54.022;10.760;2022-09-27T06:40:50;99052.41;;;14.24;72.69
30516;BME280;17297;54.022;10.760;2022-09-27T06:43:20;99051.31;;;14.25;72.57
30516;BME280;17297;54.022;10.760;2022-09-27T06:46:12;99048.63;;;14.25;72.59
30516;BME280;17297;54.022;10.760;2022-09-27T06:49:00;99045.63;;;14.26;72.55
30516;BME280;17297;54.022;10.760;2022-09-27T06:51:28;99052.41;;;14.29;72.73
30516;BME280;17297;54.022;10.760;2022-09-27T06:53:53;99056.50;;;14.31;72.66
30516;BME280;17297;54.022;10.760;2022-09-27T06:56:19;99056.78;;;14.35;72.77
30516;BME280;17297;54.022;10.760;2022-09-27T06:58:53;99064.16;;;14.40;72.82
30516;BME280;17297;54.022;10.760;2022-09-27T07:01:43;99069.03;;;14.43;72.75
30516;BME280;17297;54.022;10.760;2022-09-27T07:04:27;99058.22;;;14.43;72.58
30516;BME280;17297;54.022;10.760;2022-09-27T07:07:06;99059.56;;;14.45;72.75
30516;BME280;17297;54.022;10.760;2022-09-27T07:09:34;99063.41;;;14.49;72.83
30516;BME280;17297;54.022;10.760;2022-09-27T07:12:00;99053.16;;;14.51;72.86
30516;BME280;17297;54.022;10.760;2022-09-27T07:14:26;99052.38;;;14.56;72.81
30516;BME280;17297;54.022;10.760;2022-09-27T07:16:53;99058.66;;;14.62;72.89
30516;BME280;17297;54.022;10.760;2022-09-27T07:19:18;99060.63;;;14.76;73.06
30516;BME280;17297;54.022;10.760;2022-09-27T07:21:49;99058.56;;;14.94;73.41
30516;BME280;17297;54.022;10.760;2022-09-27T07:24:15;99053.50;;;15.08;73.17
30516;BME280;17297;54.022;10.760;2022-09-27T07:26:41;99055.47;;;15.17;72.96
30516;BME280;17297;54.022;10.760;2022-09-27T07:29:09;99049.78;;;15.24;72.79
30516;BME280;17297;54.022;10.760;2022-09-27T07:31:35;99057.13;;;15.29;72.71
30516;BME280;17297;54.022;10.760;2022-09-27T07:34:02;99052.25;;;15.31;72.66
30516;BME280;17297;54.022;10.760;2022-09-27T07:36:28;99064.47;;;15.33;72.73
30516;BME280;17297;54.022;10.760;2022-09-27T07:38:58;99062.56;;;15.34;72.53
30516;BME280;17297;54.022;10.760;2022-09-27T07:41:24;99067.69;;;15.35;72.47
30516;BME280;17297;54.022;10.760;2022-09-27T07:43:49;99066.88;;;15.35;72.45
30516;BME280;17297;54.022;10.760;2022-09-27T07:46:16;99071.25;;;15.36;72.31
30516;BME280;17297;54.022;10.760;2022-09-27T07:48:49;99073.13;;;15.35;72.29
30516;BME280;17297;54.022;10.760;2022-09-27T07:51:32;99073.41;;;15.34;72.23
30516;BME280;17297;54.022;10.760;2022-09-27T07:54:07;99073.66;;;15.32;72.32
30516;BME280;17297;54.022;10.760;2022-09-27T07:56:44;99074.72;;;15.31;72.23
30516;BME280;17297;54.022;10.760;2022-09-27T07:59:12;99070.41;;;15.30;72.25
30516;BME280;17297;54.022;10.760;2022-09-27T08:01:38;99074.19;;;15.29;72.25
30516;BME280;17297;54.022;10.760;2022-09-27T08:04:03;99072.31;;;15.30;72.33
30516;BME280;17297;54.022;10.760;2022-09-27T08:06:29;99074.72;;;15.31;72.24
30516;BME280;17297;54.022;10.760;2022-09-27T08:08:55;99077.19;;;15.33;72.28
30516;BME280;17297;54.022;10.760;2022-09-27T08:11:23;99076.91;;;15.34;72.22
30516;BME280;17297;54.022;10.760;2022-09-27T08:13:49;99072.59;;;15.33;72.13
30516;BME280;17297;54.022;10.760;2022-09-27T08:16:18;99077.19;;;15.33;72.12
30516;BME280;17297;54.022;10.760;2022-09-27T08:19:12;99087.47;;;15.31;72.02
30516;BME280;17297;54.022;10.760;2022-09-27T08:21:43;99085.00;;;15.29;71.95
30516;BME280;17297;54.022;10.760;2022-09-27T08:24:13;99087.19;;;15.27;72.09
30516;BME280;17297;54.022;10.760;2022-09-27T08:26:59;99090.72;;;15.28;71.97
30516;BME280;17297;54.022;10.760;2022-09-27T08:29:44;99089.09;;;15.27;72.05
30516;BME280;17297;54.022;10.760;2022-09-27T08:32:11;99094.50;;;15.27;72.02
30516;BME280;17297;54.022;10.760;2022-09-27T08:34:37;99090.44;;;15.29;72.13
30516;BME280;17297;54.022;10.760;2022-09-27T08:37:03;99089.38;;;15.30;72.16
30516;BME280;17297;54.022;10.760;2022-09-27T08:39:28;99091.81;;;15.32;72.25
30516;BME280;17297;54.022;10.760;2022-09-27T08:42:06;99082.63;;;15.33;72.15
30516;BME280;17297;54.022;10.760;2022-09-27T08:47:42;99089.66;;;15.34;72.17
30516;BME280;17297;54.022;10.760;2022-09-27T08:50:25;99080.44;;;15.35;72.16
30516;BME280;17297;54.022;10.760;2022-09-27T08:52:54;99079.09;;;15.37;72.16
30516;BME280;17297;54.022;10.760;2022-09-27T08:55:39;99071.53;;;15.39;72.19
30516;BME280;17297;54.022;10.760;2022-09-27T08:58:15;99079.13;;;15.42;72.09
30516;BME280;17297;54.022;10.760;2022-09-27T09:00:43;99081.56;;;15.44;71.95
30516;BME280;17297;54.022;10.760;2022-09-27T09:03:17;99081.56;;;15.44;72.23
30516;BME280;17297;54.022;10.760;2022-09-27T09:05:54;99082.38;;;15.44;72.17
30516;BME280;17297;54.022;10.760;2022-09-27T09:08:24;99082.66;;;15.48;71.74
30516;BME280;17297;54.022;10.760;2022-09-27T09:11:08;99085.34;;;15.43;71.92
30516;BME280;17297;54.022;10.760;2022-09-27T09:14:16;99081.28;;;15.40;71.99
30516;BME280;17297;54.022;10.760;2022-09-27T09:26:04;99092.34;;;15.34;72.18
30516;BME280;17297;54.022;10.760;2022-09-27T09:29:03;99091.03;;;15.36;72.08
30516;BME280;17297;54.022;10.760;2022-09-27T09:31:46;99095.63;;;15.36;72.05
30516;BME280;17297;54.022;10.760;2022-09-27T09:34:29;99092.94;;;15.36;72.14
30516;BME280;17297;54.022;10.760;2022-09-27T09:37:01;99101.88;;;15.36;72.08
30516;BME280;17297;54.022;10.760;2022-09-27T09:39:44;99092.94;;;15.36;72.24
30516;BME280;17297;54.022;10.760;2022-09-27T09:42:24;99085.31;;;15.38;72.13
30516;BME280;17297;54.022;10.760;2022-09-27T09:45:00;99090.50;;;15.39;72.30
30516;BME280;17297;54.022;10.760;2022-09-27T09:50:00;99084.03;;;15.45;72.14
30516;BME280;17297;54.022;10.760;2022-09-27T09:52:41;99088.34;;;15.46;71.99
30516;BME280;17297;54.022;10.760;2022-09-27T09:55:17;99085.63;;;15.46;72.15
30516;BME280;17297;54.022;10.760;2022-09-27T10:00:43;99081.06;;;15.52;72.20
30516;BME280;17297;54.022;10.760;2022-09-27T10:03:09;99083.78;;;15.52;72.21
30516;BME280;17297;54.022;10.760;2022-09-27T10:05:35;99086.75;;;15.56;72.17
30516;BME280;17297;54.022;10.760;2022-09-27T10:08:06;99081.91;;;15.58;72.22
30516;BME280;17297;54.022;10.760;2022-09-27T10:10:35;99087.84;;;15.60;72.12
30516;BME280;17297;54.022;10.760;2022-09-27T10:13:32;99084.88;;;15.61;72.20
30516;BME280;17297;54.022;10.760;2022-09-27T10:16:07;99081.88;;;15.63;72.21
30516;BME280;17297;54.022;10.760;2022-09-27T10:18:38;99080.28;;;15.62;72.21
30516;BME280;17297;54.022;10.760;2022-09-27T10:21:27;99089.22;;;15.62;72.18
30516;BME280;17297;54.022;10.760;2022-09-27T10:24:11;99093.81;;;15.62;72.25
30516;BME280;17297;54.022;10.760;2022-09-27T10:27:09;99082.41;;;15.60;72.06
30516;BME280;17297;54.022;10.760;2022-09-27T10:29:37;99091.66;;;15.59;72.11
30516;BME280;17297;54.022;10.760;2022-09-27T10:32:20;99092.97;;;15.56;72.01
30516;BME280;17297;54.022;10.760;2022-09-27T10:34:47;99089.19;;;15.57;71.96
30516;BME280;17297;54.022;10.760;2022-09-27T10:39:46;99087.56;;;15.56;71.95
30516;BME280;17297;54.022;10.760;2022-09-27T10:42:34;99095.44;;;15.58;72.11
30516;BME280;17297;54.022;10.760;2022-09-27T10:47:53;99103.03;;;15.61;72.03
30516;BME280;17297;54.022;10.760;2022-09-27T10:50:26;99103.28;;;15.59;72.18
30516;BME280;17297;54.022;10.760;2022-09-27T10:53:03;99103.84;;;15.61;71.94
30516;BME280;17297;54.022;10.760;2022-09-27T10:55:34;99108.19;;;15.62;72.03
30516;BME280;17297;54.022;10.760;2022-09-27T10:58:01;99107.09;;;15.63;72.18
30516;BME280;17297;54.022;10.760;2022-09-27T11:00:32;99106.84;;;15.65;72.15
30516;BME280;17297;54.022;10.760;2022-09-27T11:03:05;99113.66;;;15.67;72.22
30516;BME280;17297;54.022;10.760;2022-09-27T11:05:37;99113.13;;;15.70;72.23
30516;BME280;17297;54.022;10.760;2022-09-27T11:08:23;99116.38;;;15.73;72.34
30516;BME280;17297;54.022;10.760;2022-09-27T11:13:33;99121.25;;;15.76;71.82
30516;BME280;17297;54.022;10.760;2022-09-27T11:18:46;99119.66;;;15.75;71.87
30516;BME280;17297;54.022;10.760;2022-09-27T11:21:24;99120.19;;;15.72;71.96
30516;BME280;17297;54.022;10.760;2022-09-27T11:24:18;99125.59;;;15.72;72.06
30516;BME280;17297;54.022;10.760;2022-09-27T11:38:10;99146.19;;;15.73;71.90
30516;BME280;17297;54.022;10.760;2022-09-27T11:43:26;99146.72;;;15.69;71.93
30516;BME280;17297;54.022;10.760;2022-09-27T11:46:04;99147.00;;;15.73;71.63
30516;BME280;17297;54.022;10.760;2022-09-27T12:02:39;99151.56;;;15.62;72.00
30516;BME280;17297;54.022;10.760;2022-09-27T12:05:30;99153.97;;;15.59;72.01
30516;BME280;17297;54.022;10.760;2022-09-27T12:08:27;99158.84;;;15.57;72.01
30516;BME280;17297;54.022;10.760;2022-09-27T12:11:02;99159.94;;;15.56;72.02
30516;BME280;17297;54.022;10.760;2022-09-27T12:13:40;99155.84;;;15.53;71.87
30516;BME280;17297;54.022;10.760;2022-09-27T12:16:09;99155.28;;;15.51;71.92
30516;BME280;17297;54.022;10.760;2022-09-27T12:18:37;99162.88;;;15.49;72.02
30516;BME280;17297;54.022;10.760;2022-09-27T12:21:10;99155.81;;;15.48;72.01
30516;BME280;17297;54.022;10.760;2022-09-27T12:23:44;99165.03;;;15.47;72.03
30516;BME280;17297;54.022;10.760;2022-09-27T12:26:40;99160.69;;;15.46;71.96
30516;BME280;17297;54.022;10.760;2022-09-27T12:29:18;99172.59;;;15.45;72.00
30516;BME280;17297;54.022;10.760;2022-09-27T12:35:12;99180.72;;;15.40;72.03
30516;BME280;17297;54.022;10.760;2022-09-27T12:37:56;99178.53;;;15.37;71.99
30516;BME280;17297;54.022;10.760;2022-09-27T12:40:29;99186.66;;;15.37;71.90
30516;BME280;17297;54.022;10.760;2022-09-27T12:43:05;99183.66;;;15.33;71.91
30516;BME280;17297;54.022;10.760;2022-09-27T12:46:02;99186.63;;;15.32;72.04
30516;BME280;17297;54.022;10.760;2022-09-27T12:51:33;99187.41;;;15.27;71.89
30516;BME280;17297;54.022;10.760;2022-09-27T12:54:32;99194.97;;;15.25;71.85
30516;BME280;17297;54.022;10.760;2022-09-27T12:57:10;99194.97;;;15.25;71.84
30516;BME280;17297;54.022;10.760;2022-09-27T13:14:05;99187.13;;;15.23;71.99
30516;BME280;17297;54.022;10.760;2022-09-27T13:16:41;99198.78;;;15.24;72.28
30516;BME280;17297;54.022;10.760;2022-09-27T13:19:37;99194.72;;;15.27;72.25
30516;BME280;17297;54.022;10.760;2022-09-27T13:22:37;99202.59;;;15.28;72.24
30516;BME280;17297;54.022;10.760;2022-09-27T13:30:55;99218.03;;;15.28;72.05
30516;BME280;17297;54.022;10.760;2022-09-27T13:33:40;99217.22;;;15.27;72.12
30516;BME280;17297;54.022;10.760;2022-09-27T13:47:24;99236.09;;;15.17;71.84
30516;BME280;17297;54.022;10.760;2022-09-27T13:55:48;99248.22;;;15.09;71.85
30516;BME280;17297;54.022;10.760;2022-09-27T14:01:53;99246.31;;;15.05;72.27
30516;BME280;17297;54.022;10.760;2022-09-27T14:04:32;99250.88;;;15.04;72.06
30516;BME280;17297;54.022;10.760;2022-09-27T14:07:02;99245.16;;;15.00;71.93
30516;BME280;17297;54.022;10.760;2022-09-27T14:09:34;99247.06;;;15.00;71.99
30516;BME280;17297;54.022;10.760;2022-09-27T14:12:11;99256.00;;;15.00;72.09
30516;BME280;17297;54.022;10.760;2022-09-27T14:14:40;99255.19;;;15.00;72.06
30516;BME280;17297;54.022;10.760;2022-09-27T14:17:08;99257.09;;;14.99;72.08
30516;BME280;17297;54.022;10.760;2022-09-27T14:19:38;99250.88;;;14.99;72.18
30516;BME280;17297;54.022;10.760;2022-09-27T14:22:22;99261.69;;;14.99;72.28
30516;BME280;17297;54.022;10.760;2022-09-27T14:24:56;99258.72;;;15.00;72.13
30516;BME280;17297;54.022;10.760;2022-09-27T14:27:35;99263.31;;;15.00;72.17
30516;BME280;17297;54.022;10.760;2022-09-27T14:30:23;99264.94;;;15.01;72.25
30516;BME280;17297;54.022;10.760;2022-09-27T14:32:58;99269.31;;;15.02;72.30
30516;BME280;17297;54.022;10.760;2022-09-27T14:35:47;99275.25;;;15.04;72.44
30516;BME280;17297;54.022;10.760;2022-09-27T14:38:32;99277.44;;;15.07;72.28
30516;BME280;17297;54.022;10.760;2022-09-27T14:41:01;99266.38;;;15.09;72.36
30516;BME280;17297;54.022;10.760;2022-09-27T14:43:27;99270.47;;;15.11;72.46
30516;BME280;17297;54.022;10.760;2022-09-27T14:46:01;99282.66;;;15.14;72.54
30516;BME280;17297;54.022;10.760;2022-09-27T14:48:38;99282.41;;;15.15;72.40
30516;BME280;17297;54.022;10.760;2022-09-27T14:53:41;99282.69;;;15.19;72.50
30516;BME280;17297;54.022;10.760;2022-09-27T14:56:13;99280.81;;;15.19;72.50
30516;BME280;17297;54.022;10.760;2022-09-27T14:58:41;99282.44;;;15.20;72.53
30516;BME280;17297;54.022;10.760;2022-09-27T15:01:14;99284.88;;;15.22;72.44
30516;BME280;17297;54.022;10.760;2022-09-27T15:03:40;99288.97;;;15.24;72.46
30516;BME280;17297;54.022;10.760;2022-09-27T15:06:08;99292.50;;;15.25;72.48
30516;BME280;17297;54.022;10.760;2022-09-27T15:08:34;99294.97;;;15.27;72.54
30516;BME280;17297;54.022;10.760;2022-09-27T15:11:02;99300.09;;;15.28;72.60
30516;BME280;17297;54.022;10.760;2022-09-27T15:13:29;99299.03;;;15.29;72.54
30516;BME280;17297;54.022;10.760;2022-09-27T15:15:57;99294.16;;;15.31;72.64
30516;BME280;17297;54.022;10.760;2022-09-27T15:21:03;99300.97;;;15.34;72.58
30516;BME280;17297;54.022;10.760;2022-09-27T15:23:34;99302.88;;;15.33;72.58
30516;BME280;17297;54.022;10.760;2022-09-27T15:26:12;99301.22;;;15.32;72.67
30516;BME280;17297;54.022;10.760;2022-09-27T15:28:42;99300.69;;;15.30;72.51
30516;BME280;17297;54.022;10.760;2022-09-27T15:31:08;99307.44;;;15.28;72.48
30516;BME280;17297;54.022;10.760;2022-09-27T15:33:34;99309.56;;;15.25;72.47
30516;BME280;17297;54.022;10.760;2022-09-27T15:36:08;99311.97;;;15.22;72.32
30516;BME280;17297;54.022;10.760;2022-09-27T15:38:37;99310.59;;;15.19;72.22
30516;BME280;17297;54.022;10.760;2022-09-27T15:41:12;99310.06;;;15.17;72.33
30516;BME280;17297;54.022;10.760;2022-09-27T15:43:43;99316.00;;;15.14;72.40
30516;BME280;17297;54.022;10.760;2022-09-27T15:46:32;99315.41;;;15.12;72.51